Time;durP1;ratioP1;P1;durP2;ratioP2;P2;SDS_P1;SDS_P2;PMS_P1;PMS_P2;Temp;Humidity;BMP_temperature;BMP_pressure;BME280_temperature;BME280_humidity;BME280_pressure;Samples;Min_cycle;Max_cycle;Signal;HPM_P1;HPM_P2
2023/12/06 00:08:05;;;;;;;56;33.7;;;;;;;-3.23;81.95;;;;;
2023/12/06 00:19:04;;;;;;;56;33.7;;;;;;;-3.36;82.62;;;;;
2023/12/06 00:30:04;;;;;;;56;34.7;;;;;;;-3.06;82.2;;;;;
2023/12/06 00:40:05;;;;;;;56;34.7;;;;;;;-3.28;81.93;;;;;
2023/12/06 00:51:04;;;;;;;61.1;33.9;;;;;;;-3.42;82.16;;;;;
2023/12/06 01:02:04;;;;;;;61.1;33.9;;;;;;;-3.48;81.57;;;;;
2023/12/06 01:12:04;;;;;;;61.1;33.9;;;;;;;-3.51;81.68;;;;;
2023/12/06 01:22:04;;;;;;;53.9;31.2;;;;;;;-3.47;81.76;;;;;
2023/12/06 01:33:04;;;;;;;53.9;31.2;;;;;;;-3.65;81.67;;;;;
2023/12/06 01:43:04;;;;;;;53.9;31.2;;;;;;;-3.84;82.18;;;;;
2023/12/06 01:54:04;;;;;;;63.6;33.7;;;;;;;-3.88;82.47;;;;;
2023/12/06 02:04:05;;;;;;;63.6;33.7;;;;;;;-3.67;82.31;;;;;
2023/12/06 02:14:04;;;;;;;63.6;33.7;;;;;;;-3.55;82.03;;;;;
2023/12/06 02:25:04;;;;;;;58.3;34.8;;;;;;;-3.83;82.16;;;;;
2023/12/06 02:35:04;;;;;;;58.3;34.8;;;;;;;-3.9;82.83;;;;;
2023/12/06 02:46:06;;;;;;;58.3;34.8;;;;;;;-3.96;83.02;;;;;
2023/12/06 02:56:04;;;;;;;71.2;41.5;;;;;;;-3.8;82.89;;;;;
2023/12/06 03:07:04;;;;;;;71.2;41.5;;;;;;;-4.06;82.82;;;;;
2023/12/06 03:18:04;;;;;;;71.2;41.5;;;;;;;-4.09;83.21;;;;;
2023/12/06 03:29:04;;;;;;;81.1;45.1;;;;;;;-4.05;83.09;;;;;
2023/12/06 03:39:04;;;;;;;81.1;45.1;;;;;;;-4.21;83.11;;;;;
2023/12/06 03:49:04;;;;;;;81.1;45.1;;;;;;;-3.88;83.15;;;;;
2023/12/06 03:59:06;;;;;;;77.9;48.1;;;;;;;-3.75;82.32;;;;;
2023/12/06 04:10:05;;;;;;;77.9;48.1;;;;;;;-4.01;82.24;;;;;
2023/12/06 04:20:06;;;;;;;79.2;46.2;;;;;;;-4.21;82.62;;;;;
2023/12/06 04:31:04;;;;;;;79.2;46.2;;;;;;;-4.04;82.58;;;;;
2023/12/06 04:42:04;;;;;;;79.2;46.2;;;;;;;-4.18;82.61;;;;;
2023/12/06 04:53:04;;;;;;;74.5;44.5;;;;;;;-4.03;82.69;;;;;
2023/12/06 05:04:04;;;;;;;74.5;44.5;;;;;;;-4.28;82.68;;;;;
2023/12/06 05:15:06;;;;;;;74.5;44.5;;;;;;;-4.22;82.82;;;;;
2023/12/06 05:25:05;;;;;;;68.4;40.6;;;;;;;-4.02;82.35;;;;;
2023/12/06 05:36:04;;;;;;;68.4;40.6;;;;;;;-3.96;81.81;;;;;
2023/12/06 05:46:06;;;;;;;68.4;40.6;;;;;;;-4.31;82.62;;;;;
2023/12/06 05:56:05;;;;;;;80.7;45.8;;;;;;;-4.11;81.66;;;;;
2023/12/06 06:07:05;;;;;;;80.7;45.8;;;;;;;-4.41;82.1;;;;;
2023/12/06 06:17:05;;;;;;;80.7;45.8;;;;;;;-4.42;81.89;;;;;
2023/12/06 06:27:05;;;;;;;77;45.4;;;;;;;-4.46;82.51;;;;;
2023/12/06 06:38:05;;;;;;;77;45.4;;;;;;;-4.41;82.34;;;;;
2023/12/06 06:48:05;;;;;;;77;45.4;;;;;;;-4.28;82.11;;;;;
2023/12/06 06:59:05;;;;;;;65.7;44;;;;;;;-4.31;82.18;;;;;
2023/12/06 07:10:05;;;;;;;65.7;44;;;;;;;-4.15;81.03;;;;;
2023/12/06 07:20:05;;;;;;;75.8;44.6;;;;;;;-4.04;80.52;;;;;
2023/12/06 07:31:05;;;;;;;75.8;44.6;;;;;;;-3.84;80.21;;;;;
2023/12/06 07:42:04;;;;;;;75.8;44.6;;;;;;;-3.51;79.5;;;;;
2023/12/06 07:52:04;;;;;;;77.1;41.2;;;;;;;-3.32;78.32;;;;;
2023/12/06 08:03:05;;;;;;;77.1;41.2;;;;;;;-3.38;78.46;;;;;
2023/12/06 08:14:04;;;;;;;77.1;41.2;;;;;;;-3.45;77.67;;;;;
2023/12/06 08:25:06;;;;;;;79.6;43.1;;;;;;;-3.41;77.13;;;;;
2023/12/06 08:36:05;;;;;;;79.6;43.1;;;;;;;-3.04;76.36;;;;;
2023/12/06 08:47:05;;;;;;;79.6;43.1;;;;;;;-2.94;76.22;;;;;
2023/12/06 08:58:05;;;;;;;77.2;44.1;;;;;;;-2.56;75.26;;;;;
2023/12/06 09:08:05;;;;;;;77.2;44.1;;;;;;;-2.2;73.76;;;;;
2023/12/06 09:18:05;;;;;;;77.9;45.7;;;;;;;-1.86;73.12;;;;;
2023/12/06 09:29:05;;;;;;;77.9;45.7;;;;;;;-2.11;72.82;;;;;
2023/12/06 09:39:05;;;;;;;77.9;45.7;;;;;;;-2.79;74.9;;;;;
2023/12/06 09:49:05;;;;;;;76.6;46.8;;;;;;;-2.33;74.31;;;;;
2023/12/06 10:00:05;;;;;;;76.6;46.8;;;;;;;-2.8;76.19;;;;;
2023/12/06 10:10:05;;;;;;;76.6;46.8;;;;;;;-2.45;75.27;;;;;
2023/12/06 10:21:05;;;;;;;82.5;49.4;;;;;;;-2.92;76.39;;;;;
2023/12/06 10:31:06;;;;;;;82.5;49.4;;;;;;;-2.38;74.6;;;;;
2023/12/06 10:42:05;;;;;;;82.5;49.4;;;;;;;-2.2;73.65;;;;;
2023/12/06 10:52:05;;;;;;;78.7;48.5;;;;;;;-2.17;74.1;;;;;
2023/12/06 11:03:05;;;;;;;78.7;48.5;;;;;;;-2.33;74.57;;;;;
2023/12/06 11:14:05;;;;;;;78.7;48.5;;;;;;;-1.93;73.11;;;;;
2023/12/06 11:25:05;;;;;;;80;45.3;;;;;;;-1.68;73;;;;;
2023/12/06 11:35:05;;;;;;;80;45.3;;;;;;;-1.46;73.53;;;;;
2023/12/06 11:47:27;;;;;;;80;45.3;;;;;;;-1.9;73.95;;;;;
2023/12/06 11:57:28;;;;;;;76.8;46.6;;;;;;;-2.21;74.78;;;;;
2023/12/06 12:08:28;;;;;;;76.8;46.6;;;;;;;-1.79;75.52;;;;;
2023/12/06 12:18:27;;;;;;;83.3;46.9;;;;;;;-1.91;75.4;;;;;
2023/12/06 12:28:29;;;;;;;83.3;46.9;;;;;;;-1.53;75.12;;;;;
2023/12/06 12:39:27;;;;;;;83.3;46.9;;;;;;;-1.78;75.05;;;;;
2023/12/06 12:50:28;;;;;;;84.6;46.9;;;;;;;-1.62;75.04;;;;;
2023/12/06 13:01:27;;;;;;;84.6;46.9;;;;;;;-1.62;75.66;;;;;
2023/12/06 13:11:29;;;;;;;84.6;46.9;;;;;;;-2.08;76.78;;;;;
2023/12/06 13:22:27;;;;;;;86.3;48.2;;;;;;;-2.27;76.97;;;;;
2023/12/06 13:33:28;;;;;;;86.3;48.2;;;;;;;-2.27;77.21;;;;;
2023/12/06 13:44:28;;;;;;;86.3;48.2;;;;;;;-2.55;78.35;;;;;
2023/12/06 13:55:27;;;;;;;90.9;47.8;;;;;;;-2.94;79.4;;;;;
2023/12/06 14:05:28;;;;;;;90.9;47.8;;;;;;;-2.9;79.48;;;;;
2023/12/06 14:15:28;;;;;;;90.9;47.8;;;;;;;-2.91;79.99;;;;;
2023/12/06 14:25:28;;;;;;;79.8;39.9;;;;;;;-2.88;79.79;;;;;
2023/12/06 14:36:28;;;;;;;79.8;39.9;;;;;;;-3.17;80.48;;;;;
2023/12/06 14:47:28;;;;;;;68.8;38.9;;;;;;;-3.37;81.32;;;;;
2023/12/06 14:57:28;;;;;;;68.8;38.9;;;;;;;-3.43;81.43;;;;;
2023/12/06 15:08:27;;;;;;;68.8;38.9;;;;;;;-3.69;82.3;;;;;
2023/12/06 15:18:28;;;;;;;73.6;40;;;;;;;-3.69;82.43;;;;;
2023/12/06 15:29:28;;;;;;;73.6;40;;;;;;;-3.99;83.94;;;;;
2023/12/06 15:39:28;;;;;;;73.6;40;;;;;;;-4.1;83.73;;;;;
2023/12/06 15:50:28;;;;;;;56.5;34.9;;;;;;;-4.2;84.24;;;;;
2023/12/06 15:52:39;;;;;;;56.5;34.9;;;;;;;-4.23;84.29;;;;;
2023/12/06 16:02:39;;;;;;;56.5;34.9;;;;;;;-4.06;83.78;;;;;
2023/12/06 16:13:38;;;;;;;56.5;34.9;;;;;;;-4.04;84.19;;;;;
2023/12/06 16:24:38;;;;;;;62.1;34.6;;;;;;;-4.19;84.98;;;;;
2023/12/06 16:34:38;;;;;;;62.1;34.6;;;;;;;-4.26;85.52;;;;;
2023/12/06 16:45:38;;;;;;;62.1;34.6;;;;;;;-3.91;84.65;;;;;
2023/12/06 16:55:38;;;;;;;54.3;32.3;;;;;;;-3.97;85.06;;;;;
2023/12/06 17:05:38;;;;;;;54.3;32.3;;;;;;;-3.76;84.73;;;;;
2023/12/06 17:16:38;;;;;;;55.5;33.6;;;;;;;-3.76;84.78;;;;;
2023/12/06 17:27:38;;;;;;;55.5;33.6;;;;;;;-3.64;84.43;;;;;
2023/12/06 17:38:38;;;;;;;55.5;33.6;;;;;;;-3.64;85.18;;;;;
2023/12/06 17:48:38;;;;;;;61.2;31.7;;;;;;;-3.71;85.58;;;;;
2023/12/06 17:59:38;;;;;;;61.2;31.7;;;;;;;-3.63;85.51;;;;;
2023/12/06 18:09:38;;;;;;;61.2;31.7;;;;;;;-3.52;85.32;;;;;
2023/12/06 18:20:38;;;;;;;64.5;40.5;;;;;;;-3.45;85.47;;;;;
2023/12/06 18:31:38;;;;;;;64.5;40.5;;;;;;;-3.55;85.85;;;;;
2023/12/06 18:41:38;;;;;;;64.5;40.5;;;;;;;-3.5;85.96;;;;;
2023/12/06 19:54:07;;;;;;;71.8;36.7;;;;;;;-3.16;85.65;;;;;
2023/12/06 20:05:08;;;;;;;71.8;36.7;;;;;;;-3.08;84.86;;;;;
2023/12/06 20:16:06;;;;;;;56.9;32.9;;;;;;;-3.19;85.04;;;;;
2023/12/06 20:26:07;;;;;;;56.9;32.9;;;;;;;-3.36;85.87;;;;;
2023/12/06 20:37:07;;;;;;;60.8;33.7;;;;;;;-3.33;85.89;;;;;
2023/12/06 20:48:07;;;;;;;60.8;33.7;;;;;;;-3.25;85.63;;;;;
2023/12/06 20:59:07;;;;;;;60.8;33.7;;;;;;;-3.29;86.07;;;;;
2023/12/06 21:10:07;;;;;;;56.2;30.5;;;;;;;-3.28;86.27;;;;;
2023/12/06 21:21:07;;;;;;;56.2;30.5;;;;;;;-3.32;86.4;;;;;
2023/12/06 21:32:07;;;;;;;56.2;30.5;;;;;;;-3.29;86.61;;;;;
2023/12/06 21:43:07;;;;;;;58.7;32.5;;;;;;;-3.25;86.03;;;;;
2023/12/06 21:53:07;;;;;;;58.7;32.5;;;;;;;-3.06;85.66;;;;;
2023/12/06 22:03:07;;;;;;;58.7;32.5;;;;;;;-3.18;85.76;;;;;
2023/12/06 22:13:07;;;;;;;57.9;30.2;;;;;;;-3.12;85.78;;;;;
2023/12/06 22:23:07;;;;;;;57.9;30.2;;;;;;;-2.81;85.36;;;;;
2023/12/06 22:34:07;;;;;;;57.9;30.2;;;;;;;-2.76;84.53;;;;;
2023/12/06 22:45:07;;;;;;;56.9;29.2;;;;;;;-2.65;84.46;;;;;
2023/12/06 22:55:07;;;;;;;56.9;29.2;;;;;;;-2.74;84.48;;;;;
2023/12/06 23:06:07;;;;;;;56.8;26.8;;;;;;;-2.53;83.97;;;;;
2023/12/06 23:17:07;;;;;;;56.8;26.8;;;;;;;-2.65;83.71;;;;;
2023/12/06 23:28:07;;;;;;;56.8;26.8;;;;;;;-2.55;83.37;;;;;
2023/12/06 23:38:07;;;;;;;65.1;29.1;;;;;;;-2.6;83.27;;;;;
2023/12/06 23:49:07;;;;;;;65.1;29.1;;;;;;;-2.77;83.63;;;;;
